sensor_id;sensor_type;location;lat;lon;timestamp;P1;durP1;ratioP1;P2;durP2;ratioP2
739;SDS011;354;42.694;23.336;2023-09-07T00:00:54;16.98;;;15.40;;
739;SDS011;354;42.694;23.336;2023-09-07T00:03:19;16.13;;;14.55;;
739;SDS011;354;42.694;23.336;2023-09-07T00:05:44;15.32;;;13.98;;
739;SDS011;354;42.694;23.336;2023-09-07T00:08:09;16.23;;;14.60;;
739;SDS011;354;42.694;23.336;2023-09-07T00:10:35;14.65;;;13.25;;
739;SDS011;354;42.694;23.336;2023-09-07T00:13:01;15.77;;;14.38;;
739;SDS011;354;42.694;23.336;2023-09-07T00:15:27;14.60;;;13.50;;
739;SDS011;354;42.694;23.336;2023-09-07T00:17:52;15.23;;;14.02;;
739;SDS011;354;42.694;23.336;2023-09-07T00:20:17;15.82;;;14.52;;
739;SDS011;354;42.694;23.336;2023-09-07T00:22:44;14.15;;;12.95;;
739;SDS011;354;42.694;23.336;2023-09-07T00:25:09;16.42;;;14.93;;
739;SDS011;354;42.694;23.336;2023-09-07T00:27:35;16.63;;;15.00;;
739;SDS011;354;42.694;23.336;2023-09-07T00:30:00;15.38;;;14.05;;
739;SDS011;354;42.694;23.336;2023-09-07T00:32:25;16.77;;;15.18;;
739;SDS011;354;42.694;23.336;2023-09-07T00:34:51;16.88;;;15.40;;
739;SDS011;354;42.694;23.336;2023-09-07T00:37:16;16.00;;;14.70;;
739;SDS011;354;42.694;23.336;2023-09-07T00:39:41;17.98;;;16.40;;
739;SDS011;354;42.694;23.336;2023-09-07T00:42:06;16.67;;;15.13;;
739;SDS011;354;42.694;23.336;2023-09-07T00:44:32;16.90;;;15.30;;
739;SDS011;354;42.694;23.336;2023-09-07T00:46:57;15.80;;;14.50;;
739;SDS011;354;42.694;23.336;2023-09-07T00:49:23;17.08;;;15.65;;
739;SDS011;354;42.694;23.336;2023-09-07T00:51:48;17.45;;;16.10;;
739;SDS011;354;42.694;23.336;2023-09-07T00:54:13;16.80;;;15.40;;
739;SDS011;354;42.694;23.336;2023-09-07T00:56:38;17.75;;;16.08;;
739;SDS011;354;42.694;23.336;2023-09-07T00:59:05;16.25;;;14.57;;
739;SDS011;354;42.694;23.336;2023-09-07T01:01:31;17.80;;;16.27;;
739;SDS011;354;42.694;23.336;2023-09-07T01:03:58;17.10;;;15.50;;
739;SDS011;354;42.694;23.336;2023-09-07T01:06:28;17.08;;;15.48;;
739;SDS011;354;42.694;23.336;2023-09-07T01:08:55;18.98;;;17.20;;
739;SDS011;354;42.694;23.336;2023-09-07T01:11:21;18.30;;;16.60;;
739;SDS011;354;42.694;23.336;2023-09-07T01:13:47;20.02;;;15.80;;
739;SDS011;354;42.694;23.336;2023-09-07T01:16:13;18.70;;;16.80;;
739;SDS011;354;42.694;23.336;2023-09-07T01:18:38;18.35;;;16.85;;
739;SDS011;354;42.694;23.336;2023-09-07T01:21:07;18.58;;;16.80;;
739;SDS011;354;42.694;23.336;2023-09-07T01:23:36;17.35;;;15.75;;
739;SDS011;354;42.694;23.336;2023-09-07T01:26:02;18.33;;;16.73;;
739;SDS011;354;42.694;23.336;2023-09-07T01:28:28;18.20;;;16.60;;
739;SDS011;354;42.694;23.336;2023-09-07T01:30:53;19.63;;;17.98;;
739;SDS011;354;42.694;23.336;2023-09-07T01:33:18;19.25;;;17.38;;
739;SDS011;354;42.694;23.336;2023-09-07T01:35:43;18.85;;;17.17;;
739;SDS011;354;42.694;23.336;2023-09-07T01:38:09;19.20;;;17.35;;
739;SDS011;354;42.694;23.336;2023-09-07T01:40:35;20.42;;;18.63;;
739;SDS011;354;42.694;23.336;2023-09-07T01:43:00;19.98;;;18.20;;
739;SDS011;354;42.694;23.336;2023-09-07T01:45:25;19.63;;;17.80;;
739;SDS011;354;42.694;23.336;2023-09-07T01:47:51;20.20;;;18.30;;
739;SDS011;354;42.694;23.336;2023-09-07T01:50:17;18.73;;;17.05;;
739;SDS011;354;42.694;23.336;2023-09-07T01:52:42;19.85;;;18.08;;
739;SDS011;354;42.694;23.336;2023-09-07T01:55:07;20.40;;;18.67;;
739;SDS011;354;42.694;23.336;2023-09-07T01:57:32;20.15;;;18.42;;
739;SDS011;354;42.694;23.336;2023-09-07T01:59:58;20.58;;;18.55;;
739;SDS011;354;42.694;23.336;2023-09-07T02:02:23;21.40;;;19.40;;
739;SDS011;354;42.694;23.336;2023-09-07T02:04:48;20.10;;;18.23;;
739;SDS011;354;42.694;23.336;2023-09-07T02:07:13;20.48;;;18.38;;
739;SDS011;354;42.694;23.336;2023-09-07T02:09:39;21.13;;;19.30;;
739;SDS011;354;42.694;23.336;2023-09-07T02:12:05;19.40;;;17.60;;
739;SDS011;354;42.694;23.336;2023-09-07T02:14:30;20.67;;;18.88;;
739;SDS011;354;42.694;23.336;2023-09-07T02:16:55;20.40;;;18.40;;
739;SDS011;354;42.694;23.336;2023-09-07T02:19:21;22.20;;;20.27;;
739;SDS011;354;42.694;23.336;2023-09-07T02:21:48;21.40;;;19.40;;
739;SDS011;354;42.694;23.336;2023-09-07T02:24:13;20.23;;;18.52;;
739;SDS011;354;42.694;23.336;2023-09-07T02:26:38;21.27;;;19.40;;
739;SDS011;354;42.694;23.336;2023-09-07T02:29:09;21.60;;;19.52;;
739;SDS011;354;42.694;23.336;2023-09-07T02:31:35;22.35;;;20.25;;
739;SDS011;354;42.694;23.336;2023-09-07T02:34:00;22.60;;;20.55;;
739;SDS011;354;42.694;23.336;2023-09-07T02:36:25;20.70;;;18.80;;
739;SDS011;354;42.694;23.336;2023-09-07T02:38:50;24.05;;;19.58;;
739;SDS011;354;42.694;23.336;2023-09-07T02:41:15;21.08;;;19.17;;
739;SDS011;354;42.694;23.336;2023-09-07T02:43:41;21.48;;;19.27;;
739;SDS011;354;42.694;23.336;2023-09-07T02:46:08;21.85;;;19.67;;
739;SDS011;354;42.694;23.336;2023-09-07T02:48:33;22.17;;;20.00;;
739;SDS011;354;42.694;23.336;2023-09-07T02:50:58;21.02;;;19.13;;
739;SDS011;354;42.694;23.336;2023-09-07T02:53:25;22.00;;;19.73;;
739;SDS011;354;42.694;23.336;2023-09-07T02:55:50;22.23;;;20.17;;
739;SDS011;354;42.694;23.336;2023-09-07T02:58:15;23.30;;;21.17;;
739;SDS011;354;42.694;23.336;2023-09-07T03:00:41;22.45;;;20.35;;
739;SDS011;354;42.694;23.336;2023-09-07T03:03:07;21.20;;;19.10;;
739;SDS011;354;42.694;23.336;2023-09-07T03:05:32;22.02;;;20.13;;
739;SDS011;354;42.694;23.336;2023-09-07T03:07:57;23.00;;;20.83;;
739;SDS011;354;42.694;23.336;2023-09-07T03:10:22;21.67;;;19.65;;
739;SDS011;354;42.694;23.336;2023-09-07T03:12:47;23.65;;;21.33;;
739;SDS011;354;42.694;23.336;2023-09-07T03:15:13;23.35;;;21.25;;
739;SDS011;354;42.694;23.336;2023-09-07T03:17:38;24.25;;;21.77;;
739;SDS011;354;42.694;23.336;2023-09-07T03:20:03;24.25;;;21.73;;
739;SDS011;354;42.694;23.336;2023-09-07T03:22:40;24.80;;;22.48;;
739;SDS011;354;42.694;23.336;2023-09-07T03:25:05;25.33;;;22.92;;
739;SDS011;354;42.694;23.336;2023-09-07T03:27:30;24.83;;;22.80;;
739;SDS011;354;42.694;23.336;2023-09-07T03:29:55;30.90;;;28.03;;
739;SDS011;354;42.694;23.336;2023-09-07T03:32:21;27.98;;;25.15;;
739;SDS011;354;42.694;23.336;2023-09-07T03:34:46;27.77;;;25.20;;
739;SDS011;354;42.694;23.336;2023-09-07T03:37:11;25.13;;;22.55;;
739;SDS011;354;42.694;23.336;2023-09-07T03:39:36;26.55;;;24.00;;
739;SDS011;354;42.694;23.336;2023-09-07T03:42:02;26.07;;;23.63;;
739;SDS011;354;42.694;23.336;2023-09-07T03:44:27;27.33;;;24.83;;
739;SDS011;354;42.694;23.336;2023-09-07T03:46:52;26.80;;;24.20;;
739;SDS011;354;42.694;23.336;2023-09-07T03:49:17;26.50;;;24.17;;
739;SDS011;354;42.694;23.336;2023-09-07T03:51:42;26.23;;;23.63;;
739;SDS011;354;42.694;23.336;2023-09-07T03:54:08;25.10;;;22.90;;
739;SDS011;354;42.694;23.336;2023-09-07T03:56:33;25.93;;;23.63;;
739;SDS011;354;42.694;23.336;2023-09-07T03:58:59;27.48;;;24.70;;
739;SDS011;354;42.694;23.336;2023-09-07T04:01:24;27.63;;;25.03;;
739;SDS011;354;42.694;23.336;2023-09-07T04:03:50;30.93;;;25.97;;
739;SDS011;354;42.694;23.336;2023-09-07T04:06:15;26.33;;;24.02;;
739;SDS011;354;42.694;23.336;2023-09-07T04:08:40;28.05;;;25.20;;
739;SDS011;354;42.694;23.336;2023-09-07T04:11:06;27.58;;;25.02;;
739;SDS011;354;42.694;23.336;2023-09-07T04:13:31;28.73;;;26.05;;
739;SDS011;354;42.694;23.336;2023-09-07T04:15:57;29.42;;;26.73;;
739;SDS011;354;42.694;23.336;2023-09-07T04:18:22;27.55;;;25.00;;
739;SDS011;354;42.694;23.336;2023-09-07T04:20:47;29.38;;;26.67;;
739;SDS011;354;42.694;23.336;2023-09-07T04:23:12;28.35;;;25.65;;
739;SDS011;354;42.694;23.336;2023-09-07T04:25:38;28.10;;;25.42;;
739;SDS011;354;42.694;23.336;2023-09-07T04:28:06;27.65;;;25.02;;
739;SDS011;354;42.694;23.336;2023-09-07T04:30:32;28.63;;;25.92;;
739;SDS011;354;42.694;23.336;2023-09-07T04:32:58;28.42;;;25.83;;
739;SDS011;354;42.694;23.336;2023-09-07T04:35:30;28.67;;;26.02;;
739;SDS011;354;42.694;23.336;2023-09-07T04:37:56;27.35;;;24.83;;
739;SDS011;354;42.694;23.336;2023-09-07T04:40:21;28.13;;;25.50;;
739;SDS011;354;42.694;23.336;2023-09-07T04:42:47;33.83;;;30.65;;
739;SDS011;354;42.694;23.336;2023-09-07T04:45:12;32.67;;;29.58;;
739;SDS011;354;42.694;23.336;2023-09-07T04:47:37;27.20;;;24.63;;
739;SDS011;354;42.694;23.336;2023-09-07T04:50:02;26.48;;;23.80;;
739;SDS011;354;42.694;23.336;2023-09-07T04:52:29;27.25;;;24.75;;
739;SDS011;354;42.694;23.336;2023-09-07T04:54:54;27.80;;;25.38;;
739;SDS011;354;42.694;23.336;2023-09-07T04:57:19;25.58;;;23.30;;
739;SDS011;354;42.694;23.336;2023-09-07T04:59:45;29.45;;;26.85;;
739;SDS011;354;42.694;23.336;2023-09-07T05:02:10;29.27;;;26.50;;
739;SDS011;354;42.694;23.336;2023-09-07T05:04:36;27.88;;;25.25;;
739;SDS011;354;42.694;23.336;2023-09-07T05:07:02;28.15;;;25.58;;
739;SDS011;354;42.694;23.336;2023-09-07T05:09:27;28.63;;;26.08;;
739;SDS011;354;42.694;23.336;2023-09-07T05:11:54;29.10;;;26.25;;
739;SDS011;354;42.694;23.336;2023-09-07T05:14:19;27.40;;;24.70;;
739;SDS011;354;42.694;23.336;2023-09-07T05:16:45;27.63;;;25.00;;
739;SDS011;354;42.694;23.336;2023-09-07T05:19:10;28.55;;;25.90;;
739;SDS011;354;42.694;23.336;2023-09-07T05:21:35;28.88;;;25.75;;
739;SDS011;354;42.694;23.336;2023-09-07T05:24:00;29.92;;;27.23;;
739;SDS011;354;42.694;23.336;2023-09-07T05:26:26;27.15;;;24.80;;
739;SDS011;354;42.694;23.336;2023-09-07T05:28:51;27.25;;;24.70;;
739;SDS011;354;42.694;23.336;2023-09-07T05:31:16;27.88;;;25.30;;
739;SDS011;354;42.694;23.336;2023-09-07T05:33:42;25.33;;;22.83;;
739;SDS011;354;42.694;23.336;2023-09-07T05:36:07;26.27;;;23.85;;
739;SDS011;354;42.694;23.336;2023-09-07T05:38:32;25.27;;;22.88;;
739;SDS011;354;42.694;23.336;2023-09-07T05:40:57;25.73;;;23.40;;
739;SDS011;354;42.694;23.336;2023-09-07T05:43:23;25.33;;;23.10;;
739;SDS011;354;42.694;23.336;2023-09-07T05:45:48;24.83;;;22.52;;
739;SDS011;354;42.694;23.336;2023-09-07T05:48:13;26.15;;;23.70;;
739;SDS011;354;42.694;23.336;2023-09-07T05:50:41;25.45;;;23.15;;
739;SDS011;354;42.694;23.336;2023-09-07T05:53:06;26.05;;;23.73;;
739;SDS011;354;42.694;23.336;2023-09-07T05:55:32;26.30;;;23.90;;
739;SDS011;354;42.694;23.336;2023-09-07T05:57:57;25.92;;;23.30;;
739;SDS011;354;42.694;23.336;2023-09-07T06:00:23;28.35;;;25.58;;
739;SDS011;354;42.694;23.336;2023-09-07T06:02:48;26.42;;;23.92;;
739;SDS011;354;42.694;23.336;2023-09-07T06:05:14;30.15;;;27.17;;
739;SDS011;354;42.694;23.336;2023-09-07T06:07:39;26.50;;;23.95;;
739;SDS011;354;42.694;23.336;2023-09-07T06:10:04;24.10;;;21.77;;
739;SDS011;354;42.694;23.336;2023-09-07T06:12:30;23.23;;;20.92;;
739;SDS011;354;42.694;23.336;2023-09-07T06:14:56;24.10;;;21.70;;
739;SDS011;354;42.694;23.336;2023-09-07T06:17:21;21.92;;;19.85;;
739;SDS011;354;42.694;23.336;2023-09-07T06:19:46;21.48;;;19.58;;
739;SDS011;354;42.694;23.336;2023-09-07T06:22:11;21.15;;;18.95;;
739;SDS011;354;42.694;23.336;2023-09-07T06:24:37;20.67;;;18.88;;
739;SDS011;354;42.694;23.336;2023-09-07T06:27:02;20.95;;;19.02;;
739;SDS011;354;42.694;23.336;2023-09-07T06:29:27;18.30;;;16.67;;
739;SDS011;354;42.694;23.336;2023-09-07T06:31:52;18.73;;;17.13;;
739;SDS011;354;42.694;23.336;2023-09-07T06:34:18;19.30;;;17.33;;
739;SDS011;354;42.694;23.336;2023-09-07T06:36:43;19.48;;;17.77;;
739;SDS011;354;42.694;23.336;2023-09-07T06:39:08;18.42;;;16.73;;
739;SDS011;354;42.694;23.336;2023-09-07T06:41:34;19.73;;;17.75;;
739;SDS011;354;42.694;23.336;2023-09-07T06:43:59;19.52;;;17.75;;
739;SDS011;354;42.694;23.336;2023-09-07T06:46:24;23.83;;;21.55;;
739;SDS011;354;42.694;23.336;2023-09-07T06:48:50;19.42;;;17.58;;
739;SDS011;354;42.694;23.336;2023-09-07T06:51:15;21.17;;;19.27;;
739;SDS011;354;42.694;23.336;2023-09-07T06:53:40;18.45;;;16.75;;
739;SDS011;354;42.694;23.336;2023-09-07T06:56:06;20.00;;;17.77;;
739;SDS011;354;42.694;23.336;2023-09-07T06:58:31;17.17;;;15.75;;
739;SDS011;354;42.694;23.336;2023-09-07T07:00:59;19.30;;;17.55;;
739;SDS011;354;42.694;23.336;2023-09-07T07:03:28;18.35;;;16.65;;
739;SDS011;354;42.694;23.336;2023-09-07T07:05:53;17.83;;;16.20;;
739;SDS011;354;42.694;23.336;2023-09-07T07:08:19;17.40;;;15.60;;
739;SDS011;354;42.694;23.336;2023-09-07T07:10:44;16.20;;;14.90;;
739;SDS011;354;42.694;23.336;2023-09-07T07:13:09;15.75;;;14.55;;
739;SDS011;354;42.694;23.336;2023-09-07T07:15:35;15.73;;;14.43;;
739;SDS011;354;42.694;23.336;2023-09-07T07:18:00;15.50;;;14.10;;
739;SDS011;354;42.694;23.336;2023-09-07T07:20:26;17.25;;;15.60;;
739;SDS011;354;42.694;23.336;2023-09-07T07:22:51;18.00;;;16.23;;
739;SDS011;354;42.694;23.336;2023-09-07T07:25:16;16.52;;;14.85;;
739;SDS011;354;42.694;23.336;2023-09-07T07:27:42;14.88;;;13.57;;
739;SDS011;354;42.694;23.336;2023-09-07T07:30:07;14.18;;;12.98;;
739;SDS011;354;42.694;23.336;2023-09-07T07:32:33;14.80;;;13.30;;
739;SDS011;354;42.694;23.336;2023-09-07T07:34:58;14.55;;;13.35;;
739;SDS011;354;42.694;23.336;2023-09-07T07:37:23;16.63;;;15.02;;
739;SDS011;354;42.694;23.336;2023-09-07T07:39:49;14.45;;;13.38;;
739;SDS011;354;42.694;23.336;2023-09-07T07:42:14;15.95;;;14.45;;
739;SDS011;354;42.694;23.336;2023-09-07T07:44:39;14.15;;;12.90;;
739;SDS011;354;42.694;23.336;2023-09-07T07:47:04;15.55;;;14.05;;
739;SDS011;354;42.694;23.336;2023-09-07T07:49:30;13.95;;;12.77;;
739;SDS011;354;42.694;23.336;2023-09-07T07:51:56;14.68;;;13.15;;
739;SDS011;354;42.694;23.336;2023-09-07T07:54:22;13.63;;;12.35;;
739;SDS011;354;42.694;23.336;2023-09-07T07:56:49;13.70;;;12.48;;
739;SDS011;354;42.694;23.336;2023-09-07T07:59:15;13.18;;;11.95;;
739;SDS011;354;42.694;23.336;2023-09-07T08:01:40;12.48;;;11.45;;
739;SDS011;354;42.694;23.336;2023-09-07T08:04:05;13.10;;;11.80;;
739;SDS011;354;42.694;23.336;2023-09-07T08:06:32;12.07;;;11.07;;
739;SDS011;354;42.694;23.336;2023-09-07T08:08:57;11.98;;;10.95;;
739;SDS011;354;42.694;23.336;2023-09-07T08:11:22;14.00;;;12.85;;
739;SDS011;354;42.694;23.336;2023-09-07T08:13:47;12.32;;;10.98;;
739;SDS011;354;42.694;23.336;2023-09-07T08:16:13;12.05;;;11.15;;
739;SDS011;354;42.694;23.336;2023-09-07T08:18:38;12.02;;;10.93;;
739;SDS011;354;42.694;23.336;2023-09-07T08:21:05;13.13;;;12.02;;
739;SDS011;354;42.694;23.336;2023-09-07T08:23:30;13.82;;;12.73;;
739;SDS011;354;42.694;23.336;2023-09-07T08:25:56;13.32;;;12.18;;
739;SDS011;354;42.694;23.336;2023-09-07T08:28:21;13.88;;;12.68;;
739;SDS011;354;42.694;23.336;2023-09-07T08:30:48;13.75;;;12.65;;
739;SDS011;354;42.694;23.336;2023-09-07T08:33:13;12.55;;;11.43;;
739;SDS011;354;42.694;23.336;2023-09-07T08:35:39;12.82;;;11.60;;
739;SDS011;354;42.694;23.336;2023-09-07T08:38:09;13.00;;;11.90;;
739;SDS011;354;42.694;23.336;2023-09-07T08:40:34;13.25;;;12.10;;
739;SDS011;354;42.694;23.336;2023-09-07T08:43:03;13.52;;;12.23;;
739;SDS011;354;42.694;23.336;2023-09-07T08:45:28;13.32;;;12.27;;
739;SDS011;354;42.694;23.336;2023-09-07T08:47:54;12.20;;;10.82;;
739;SDS011;354;42.694;23.336;2023-09-07T08:50:19;11.77;;;10.88;;
739;SDS011;354;42.694;23.336;2023-09-07T08:52:45;13.55;;;12.35;;
739;SDS011;354;42.694;23.336;2023-09-07T08:55:11;17.23;;;15.85;;
739;SDS011;354;42.694;23.336;2023-09-07T08:57:37;12.18;;;11.13;;
739;SDS011;354;42.694;23.336;2023-09-07T09:00:03;14.20;;;12.90;;
739;SDS011;354;42.694;23.336;2023-09-07T09:02:33;17.05;;;15.63;;
739;SDS011;354;42.694;23.336;2023-09-07T09:04:58;12.50;;;11.50;;
739;SDS011;354;42.694;23.336;2023-09-07T09:07:24;15.20;;;13.90;;
739;SDS011;354;42.694;23.336;2023-09-07T09:09:49;13.57;;;12.43;;
739;SDS011;354;42.694;23.336;2023-09-07T09:12:15;12.48;;;11.27;;
739;SDS011;354;42.694;23.336;2023-09-07T09:14:44;11.85;;;11.05;;
739;SDS011;354;42.694;23.336;2023-09-07T09:17:13;11.70;;;10.88;;
739;SDS011;354;42.694;23.336;2023-09-07T09:19:39;12.20;;;11.38;;
739;SDS011;354;42.694;23.336;2023-09-07T09:22:04;11.45;;;10.55;;
739;SDS011;354;42.694;23.336;2023-09-07T09:24:33;11.32;;;10.20;;
739;SDS011;354;42.694;23.336;2023-09-07T09:27:01;11.48;;;10.57;;
739;SDS011;354;42.694;23.336;2023-09-07T09:29:26;12.60;;;11.55;;
739;SDS011;354;42.694;23.336;2023-09-07T09:31:52;11.90;;;10.93;;
739;SDS011;354;42.694;23.336;2023-09-07T09:34:18;10.52;;;9.52;;
739;SDS011;354;42.694;23.336;2023-09-07T09:36:44;11.13;;;10.23;;
739;SDS011;354;42.694;23.336;2023-09-07T09:39:09;10.70;;;9.82;;
739;SDS011;354;42.694;23.336;2023-09-07T09:41:35;12.00;;;10.90;;
739;SDS011;354;42.694;23.336;2023-09-07T09:44:00;11.30;;;10.43;;
739;SDS011;354;42.694;23.336;2023-09-07T09:46:27;11.20;;;10.15;;
739;SDS011;354;42.694;23.336;2023-09-07T09:48:54;12.13;;;11.13;;
739;SDS011;354;42.694;23.336;2023-09-07T09:51:19;12.77;;;10.10;;
739;SDS011;354;42.694;23.336;2023-09-07T09:53:44;11.27;;;10.38;;
739;SDS011;354;42.694;23.336;2023-09-07T09:56:10;11.50;;;10.50;;
739;SDS011;354;42.694;23.336;2023-09-07T09:58:36;22.83;;;20.45;;
739;SDS011;354;42.694;23.336;2023-09-07T10:01:01;11.73;;;10.55;;
739;SDS011;354;42.694;23.336;2023-09-07T10:03:37;11.35;;;10.35;;
739;SDS011;354;42.694;23.336;2023-09-07T10:06:17;11.35;;;10.10;;
739;SDS011;354;42.694;23.336;2023-09-07T10:11:29;11.02;;;10.13;;
739;SDS011;354;42.694;23.336;2023-09-07T10:13:59;12.60;;;11.30;;
739;SDS011;354;42.694;23.336;2023-09-07T10:16:24;11.35;;;10.32;;
739;SDS011;354;42.694;23.336;2023-09-07T10:18:51;11.25;;;10.25;;
739;SDS011;354;42.694;23.336;2023-09-07T10:21:16;12.07;;;10.98;;
739;SDS011;354;42.694;23.336;2023-09-07T10:23:42;11.25;;;10.00;;
739;SDS011;354;42.694;23.336;2023-09-07T10:26:12;10.55;;;9.80;;
739;SDS011;354;42.694;23.336;2023-09-07T10:28:37;11.57;;;10.77;;
739;SDS011;354;42.694;23.336;2023-09-07T10:33:28;10.75;;;9.98;;
739;SDS011;354;42.694;23.336;2023-09-07T10:35:54;11.32;;;10.15;;
739;SDS011;354;42.694;23.336;2023-09-07T10:38:19;10.80;;;9.88;;
739;SDS011;354;42.694;23.336;2023-09-07T10:40:44;12.20;;;11.23;;
739;SDS011;354;42.694;23.336;2023-09-07T10:43:12;12.20;;;11.02;;
739;SDS011;354;42.694;23.336;2023-09-07T10:45:38;10.77;;;9.95;;
739;SDS011;354;42.694;23.336;2023-09-07T10:48:03;11.50;;;10.48;;
739;SDS011;354;42.694;23.336;2023-09-07T10:50:41;12.30;;;11.05;;
739;SDS011;354;42.694;23.336;2023-09-07T10:53:07;12.40;;;11.40;;
739;SDS011;354;42.694;23.336;2023-09-07T10:55:38;12.20;;;11.02;;
739;SDS011;354;42.694;23.336;2023-09-07T10:58:09;11.20;;;10.05;;
739;SDS011;354;42.694;23.336;2023-09-07T11:00:35;11.40;;;10.45;;
739;SDS011;354;42.694;23.336;2023-09-07T11:03:06;10.43;;;9.73;;
739;SDS011;354;42.694;23.336;2023-09-07T11:05:32;9.55;;;8.93;;
739;SDS011;354;42.694;23.336;2023-09-07T11:07:58;10.30;;;9.50;;
739;SDS011;354;42.694;23.336;2023-09-07T11:10:25;10.27;;;9.48;;
739;SDS011;354;42.694;23.336;2023-09-07T11:12:51;9.20;;;8.60;;
739;SDS011;354;42.694;23.336;2023-09-07T11:15:16;10.18;;;9.45;;
739;SDS011;354;42.694;23.336;2023-09-07T11:17:44;10.38;;;9.38;;
739;SDS011;354;42.694;23.336;2023-09-07T11:20:09;10.23;;;9.20;;
739;SDS011;354;42.694;23.336;2023-09-07T11:22:35;10.20;;;9.38;;
739;SDS011;354;42.694;23.336;2023-09-07T11:25:03;10.60;;;9.60;;
739;SDS011;354;42.694;23.336;2023-09-07T11:27:29;10.48;;;9.50;;
739;SDS011;354;42.694;23.336;2023-09-07T11:29:55;9.88;;;8.48;;
739;SDS011;354;42.694;23.336;2023-09-07T11:32:20;10.02;;;9.35;;
739;SDS011;354;42.694;23.336;2023-09-07T11:34:50;9.70;;;9.00;;
739;SDS011;354;42.694;23.336;2023-09-07T11:37:17;9.60;;;8.90;;
739;SDS011;354;42.694;23.336;2023-09-07T11:39:43;9.70;;;8.98;;
739;SDS011;354;42.694;23.336;2023-09-07T11:42:08;9.35;;;8.70;;
739;SDS011;354;42.694;23.336;2023-09-07T11:44:33;9.35;;;8.65;;
739;SDS011;354;42.694;23.336;2023-09-07T11:46:58;10.05;;;9.15;;
739;SDS011;354;42.694;23.336;2023-09-07T11:49:24;9.90;;;9.20;;
739;SDS011;354;42.694;23.336;2023-09-07T11:51:49;8.95;;;8.20;;
739;SDS011;354;42.694;23.336;2023-09-07T11:54:14;9.93;;;8.88;;
739;SDS011;354;42.694;23.336;2023-09-07T11:56:40;10.55;;;9.57;;
739;SDS011;354;42.694;23.336;2023-09-07T11:59:08;9.90;;;8.98;;
739;SDS011;354;42.694;23.336;2023-09-07T12:01:33;10.35;;;9.52;;
739;SDS011;354;42.694;23.336;2023-09-07T12:03:59;9.93;;;9.20;;
739;SDS011;354;42.694;23.336;2023-09-07T12:06:24;9.82;;;8.98;;
739;SDS011;354;42.694;23.336;2023-09-07T12:08:59;9.88;;;9.20;;
739;SDS011;354;42.694;23.336;2023-09-07T12:11:25;10.20;;;9.40;;
739;SDS011;354;42.694;23.336;2023-09-07T12:13:50;8.85;;;8.25;;
739;SDS011;354;42.694;23.336;2023-09-07T12:16:15;9.07;;;8.38;;
739;SDS011;354;42.694;23.336;2023-09-07T12:18:41;11.32;;;10.30;;
739;SDS011;354;42.694;23.336;2023-09-07T12:21:06;9.93;;;9.13;;
739;SDS011;354;42.694;23.336;2023-09-07T12:23:33;10.00;;;9.02;;
739;SDS011;354;42.694;23.336;2023-09-07T12:25:58;9.07;;;8.30;;
739;SDS011;354;42.694;23.336;2023-09-07T12:28:23;8.50;;;7.95;;
739;SDS011;354;42.694;23.336;2023-09-07T12:30:48;11.30;;;9.85;;
739;SDS011;354;42.694;23.336;2023-09-07T12:33:14;12.98;;;11.77;;
739;SDS011;354;42.694;23.336;2023-09-07T12:35:39;9.98;;;9.07;;
739;SDS011;354;42.694;23.336;2023-09-07T12:38:04;9.23;;;8.30;;
739;SDS011;354;42.694;23.336;2023-09-07T12:40:29;10.82;;;9.80;;
739;SDS011;354;42.694;23.336;2023-09-07T12:42:55;10.02;;;8.77;;
739;SDS011;354;42.694;23.336;2023-09-07T12:45:20;9.32;;;8.63;;
739;SDS011;354;42.694;23.336;2023-09-07T12:47:45;11.35;;;9.23;;
739;SDS011;354;42.694;23.336;2023-09-07T12:50:10;9.25;;;8.70;;
739;SDS011;354;42.694;23.336;2023-09-07T12:52:36;8.73;;;8.18;;
739;SDS011;354;42.694;23.336;2023-09-07T12:55:02;9.00;;;8.32;;
739;SDS011;354;42.694;23.336;2023-09-07T12:57:28;8.98;;;8.27;;
739;SDS011;354;42.694;23.336;2023-09-07T12:59:53;9.27;;;8.57;;
739;SDS011;354;42.694;23.336;2023-09-07T13:02:18;10.10;;;9.38;;
739;SDS011;354;42.694;23.336;2023-09-07T13:04:44;9.73;;;8.93;;
739;SDS011;354;42.694;23.336;2023-09-07T13:07:09;8.95;;;8.20;;
739;SDS011;354;42.694;23.336;2023-09-07T13:09:34;9.48;;;8.70;;
739;SDS011;354;42.694;23.336;2023-09-07T13:11:59;9.25;;;8.65;;
739;SDS011;354;42.694;23.336;2023-09-07T13:14:25;9.05;;;8.45;;
739;SDS011;354;42.694;23.336;2023-09-07T13:16:50;9.38;;;8.55;;
739;SDS011;354;42.694;23.336;2023-09-07T13:19:16;9.85;;;8.48;;
739;SDS011;354;42.694;23.336;2023-09-07T13:21:41;100.63;;;72.25;;
739;SDS011;354;42.694;23.336;2023-09-07T13:24:07;9.75;;;8.77;;
739;SDS011;354;42.694;23.336;2023-09-07T13:26:32;9.52;;;8.82;;
739;SDS011;354;42.694;23.336;2023-09-07T13:28:57;11.27;;;10.30;;
739;SDS011;354;42.694;23.336;2023-09-07T13:31:23;9.68;;;8.85;;
739;SDS011;354;42.694;23.336;2023-09-07T13:33:48;10.00;;;9.13;;
739;SDS011;354;42.694;23.336;2023-09-07T13:36:14;9.52;;;8.82;;
739;SDS011;354;42.694;23.336;2023-09-07T13:38:39;10.23;;;9.35;;
739;SDS011;354;42.694;23.336;2023-09-07T13:41:06;10.38;;;8.68;;
739;SDS011;354;42.694;23.336;2023-09-07T13:43:31;9.35;;;8.60;;
739;SDS011;354;42.694;23.336;2023-09-07T13:45:56;9.50;;;8.70;;
739;SDS011;354;42.694;23.336;2023-09-07T13:48:22;9.60;;;8.90;;
739;SDS011;354;42.694;23.336;2023-09-07T13:50:47;9.90;;;9.05;;
739;SDS011;354;42.694;23.336;2023-09-07T13:53:13;10.50;;;9.50;;
739;SDS011;354;42.694;23.336;2023-09-07T13:55:39;9.82;;;9.00;;
739;SDS011;354;42.694;23.336;2023-09-07T13:58:06;10.73;;;9.82;;
739;SDS011;354;42.694;23.336;2023-09-07T14:00:31;14.38;;;9.45;;
739;SDS011;354;42.694;23.336;2023-09-07T14:02:56;9.98;;;9.27;;
739;SDS011;354;42.694;23.336;2023-09-07T14:05:22;9.60;;;8.90;;
739;SDS011;354;42.694;23.336;2023-09-07T14:07:47;11.20;;;9.40;;
739;SDS011;354;42.694;23.336;2023-09-07T14:10:12;9.63;;;9.02;;
739;SDS011;354;42.694;23.336;2023-09-07T14:12:38;9.75;;;8.95;;
739;SDS011;354;42.694;23.336;2023-09-07T14:15:03;9.40;;;8.70;;
739;SDS011;354;42.694;23.336;2023-09-07T14:17:28;10.05;;;9.15;;
739;SDS011;354;42.694;23.336;2023-09-07T14:19:53;11.40;;;8.95;;
739;SDS011;354;42.694;23.336;2023-09-07T14:22:19;10.05;;;9.15;;
739;SDS011;354;42.694;23.336;2023-09-07T14:24:44;11.50;;;8.75;;
739;SDS011;354;42.694;23.336;2023-09-07T14:27:09;8.88;;;8.18;;
739;SDS011;354;42.694;23.336;2023-09-07T14:29:35;9.32;;;8.60;;
739;SDS011;354;42.694;23.336;2023-09-07T14:32:00;10.18;;;9.48;;
739;SDS011;354;42.694;23.336;2023-09-07T14:34:25;9.20;;;8.60;;
739;SDS011;354;42.694;23.336;2023-09-07T14:36:51;10.18;;;9.27;;
739;SDS011;354;42.694;23.336;2023-09-07T14:39:19;9.15;;;8.45;;
739;SDS011;354;42.694;23.336;2023-09-07T14:41:48;10.25;;;9.25;;
739;SDS011;354;42.694;23.336;2023-09-07T14:44:14;10.25;;;9.35;;
739;SDS011;354;42.694;23.336;2023-09-07T14:46:39;9.85;;;9.10;;
739;SDS011;354;42.694;23.336;2023-09-07T14:49:04;9.23;;;8.35;;
739;SDS011;354;42.694;23.336;2023-09-07T14:51:30;8.55;;;8.00;;
739;SDS011;354;42.694;23.336;2023-09-07T14:53:55;8.73;;;8.13;;
739;SDS011;354;42.694;23.336;2023-09-07T14:56:20;9.73;;;8.93;;
739;SDS011;354;42.694;23.336;2023-09-07T14:58:45;10.60;;;9.57;;
739;SDS011;354;42.694;23.336;2023-09-07T15:01:11;9.60;;;8.80;;
739;SDS011;354;42.694;23.336;2023-09-07T15:03:37;10.02;;;9.13;;